Time,TemperatureF,DewpointF,PressureIn,WindDirection,WindDirectionDegrees,WindSpeedMPH,WindSpeedGustMPH,Humidity,HourlyPrecipIn,Conditions,Clouds,dailyrainin,SoftwareType,DateUTC
2013-08-13 00:00:00,71.3,70.4,30.03,WSW,252,0.0,0.0,97,0.00,,CLR,0.02,VWS V14.01,2013-08-13 04:00:00,
2013-08-13 00:01:00,71.3,70.4,30.03,WSW,252,0.0,0.0,97,0.00,,CLR,0.00,VWS V14.01,2013-08-13 04:01:00,
2013-08-13 00:02:00,71.2,70.3,30.03,WSW,252,0.0,0.0,97,0.00,,CLR,0.00,VWS V14.01,2013-08-13 04:02:00,
2013-08-13 00:07:00,71.2,70.3,30.03,WSW,252,0.0,0.0,97,0.00,,CLR,0.00,VWS V14.01,2013-08-13 04:07:00,
2013-08-13 00:12:00,71.1,70.2,30.03,WSW,252,0.0,0.0,97,0.00,,CLR,0.00,VWS V14.01,2013-08-13 04:12:00,
2013-08-13 00:17:00,71.2,70.3,30.03,WSW,252,0.0,0.0,97,0.00,,CLR,0.00,VWS V14.01,2013-08-13 04:17:00,
2013-08-13 00:22:00,71.1,70.2,30.04,WSW,252,0.0,0.0,97,0.00,,CLR,0.00,VWS V14.01,2013-08-13 04:22:00,
2013-08-13 00:27:00,71.1,70.2,30.04,WSW,252,0.0,0.0,97,0.00,,CLR,0.00,VWS V14.01,2013-08-13 04:27:00,
2013-08-13 00:30:00,71.1,70.2,30.04,WSW,252,0.0,0.0,97,0.00,,CLR,0.00,VWS V14.01,2013-08-13 04:30:00,
2013-08-13 00:32:00,71.1,70.2,30.03,WSW,252,0.0,0.0,97,0.00,,CLR,0.00,VWS V14.01,2013-08-13 04:32:00,
2013-08-13 00:37:00,71.1,70.2,30.03,WSW,252,0.0,0.0,97,0.00,,CLR,0.00,VWS V14.01,2013-08-13 04:37:00,
2013-08-13 00:42:00,71.1,70.2,30.03,WSW,252,0.0,0.0,97,0.00,,CLR,0.00,VWS V14.01,2013-08-13 04:42:00,
2013-08-13 00:47:00,71.0,70.1,30.03,WSW,252,0.0,0.0,97,0.00,,CLR,0.00,VWS V14.01,2013-08-13 04:47:00,
2013-08-13 00:52:00,71.0,70.1,30.03,WSW,252,0.0,0.0,97,0.00,,CLR,0.00,VWS V14.01,2013-08-13 04:52:00,
2013-08-13 00:57:00,71.0,70.1,30.02,WSW,252,0.0,0.0,97,0.00,,CLR,0.00,VWS V14.01,2013-08-13 04:57:00,
2013-08-13 01:00:00,71.0,70.1,30.03,WSW,252,0.0,0.0,97,0.00,,CLR,0.00,VWS V14.01,2013-08-13 05:00:00,
2013-08-13 01:02:00,71.0,70.4,30.03,WSW,252,0.0,0.0,98,0.00,,CLR,0.00,VWS V14.01,2013-08-13 05:02:00,
2013-08-13 01:07:00,71.0,70.4,30.03,WSW,252,0.0,0.0,98,0.00,,CLR,0.00,VWS V14.01,2013-08-13 05:07:00,
2013-08-13 01:12:00,71.0,70.1,30.02,WSW,252,0.0,0.0,97,0.00,,CLR,0.00,VWS V14.01,2013-08-13 05:12:00,
2013-08-13 01:17:00,71.0,70.1,30.02,WSW,252,0.0,0.0,97,0.00,,CLR,0.00,VWS V14.01,2013-08-13 05:17:00,
2013-08-13 01:22:00,71.0,70.1,30.02,WSW,252,0.0,0.0,97,0.00,,CLR,0.00,VWS V14.01,2013-08-13 05:22:00,
2013-08-13 01:27:00,71.0,70.1,30.02,WSW,252,0.0,0.0,97,0.00,,CLR,0.00,VWS V14.01,2013-08-13 05:27:00,
2013-08-13 01:30:00,70.9,70.0,30.02,WSW,252,0.0,0.0,97,0.00,,CLR,0.00,VWS V14.01,2013-08-13 05:30:00,
2013-08-13 01:32:00,70.9,70.0,30.02,WSW,252,0.0,0.0,97,0.00,,CLR,0.00,VWS V14.01,2013-08-13 05:32:00,
2013-08-13 01:37:00,70.9,70.0,30.02,WSW,252,0.0,0.0,97,0.00,,CLR,0.00,VWS V14.01,2013-08-13 05:37:00,
2013-08-13 01:42:00,70.9,70.3,30.02,WSW,252,0.0,0.0,98,0.00,,CLR,0.00,VWS V14.01,2013-08-13 05:42:00,
2013-08-13 01:47:00,70.9,70.3,30.02,WSW,252,0.0,0.0,98,0.00,,CLR,0.00,VWS V14.01,2013-08-13 05:47:00,
2013-08-13 01:52:00,70.9,70.3,30.01,WSW,252,0.0,0.0,98,0.00,,CLR,0.00,VWS V14.01,2013-08-13 05:52:00,
2013-08-13 01:57:00,70.8,70.2,30.01,WSW,252,0.0,0.0,98,0.00,,CLR,0.00,VWS V14.01,2013-08-13 05:57:00,
2013-08-13 02:00:00,70.8,70.2,30.01,WSW,252,0.0,0.0,98,0.00,,CLR,0.00,VWS V14.01,2013-08-13 06:00:00,
2013-08-13 02:02:00,70.9,70.3,30.01,WSW,252,0.0,0.0,98,0.00,,CLR,0.00,VWS V14.01,2013-08-13 06:02:00,
2013-08-13 02:07:00,71.0,70.4,30.00,WSW,252,0.0,0.0,98,0.00,,CLR,0.00,VWS V14.01,2013-08-13 06:07:00,
2013-08-13 02:12:00,71.0,70.4,30.00,WSW,252,0.0,0.0,98,0.00,,CLR,0.00,VWS V14.01,2013-08-13 06:12:00,
2013-08-13 02:17:00,71.1,70.5,30.00,WSW,252,0.0,0.0,98,0.00,,CLR,0.00,VWS V14.01,2013-08-13 06:17:00,
2013-08-13 02:22:00,71.1,70.5,29.99,WSW,252,0.0,0.0,98,0.00,,CLR,0.00,VWS V14.01,2013-08-13 06:22:00,
2013-08-13 02:27:00,71.2,70.6,29.99,WSW,252,0.0,0.0,98,0.00,,CLR,0.00,VWS V14.01,2013-08-13 06:27:00,
2013-08-13 02:30:00,71.1,70.5,29.99,WSW,252,0.0,0.0,98,0.00,,CLR,0.00,VWS V14.01,2013-08-13 06:30:00,
2013-08-13 02:32:00,71.1,70.5,29.99,WSW,252,0.0,0.0,98,0.00,,CLR,0.00,VWS V14.01,2013-08-13 06:32:00,
2013-08-13 02:37:00,71.1,70.5,29.99,WSW,252,0.0,0.0,98,0.00,,FEW060,0.00,VWS V14.01,2013-08-13 06:37:00,
2013-08-13 02:42:00,71.2,70.6,29.99,WSW,252,0.0,0.0,98,0.00,,FEW060,0.00,VWS V14.01,2013-08-13 06:42:00,
2013-08-13 02:47:00,71.1,70.5,29.99,WSW,252,0.0,1.0,98,0.00,,FEW060,0.00,VWS V14.01,2013-08-13 06:47:00,
2013-08-13 02:52:00,71.2,70.6,29.98,WSW,247,0.0,1.0,98,0.00,,FEW060,0.00,VWS V14.01,2013-08-13 06:52:00,
2013-08-13 02:56:00,71.2,70.6,29.98,WSW,247,0.0,1.0,98,0.00,,FEW060,0.00,VWS V14.01,2013-08-13 06:56:00,
2013-08-13 03:00:00,71.2,70.6,29.98,WSW,247,0.0,1.0,98,0.00,,CLR,0.00,VWS V14.01,2013-08-13 07:00:00,
2013-08-13 03:01:00,71.2,70.6,29.98,WSW,247,0.0,0.0,98,0.00,,FEW060,0.00,VWS V14.01,2013-08-13 07:01:00,
2013-08-13 03:06:00,71.2,70.6,29.98,WSW,247,0.0,0.0,98,0.00,,FEW060,0.00,VWS V14.01,2013-08-13 07:06:00,
2013-08-13 03:11:00,71.2,70.6,29.98,WSW,247,0.0,0.0,98,0.00,,FEW060,0.00,VWS V14.01,2013-08-13 07:11:00,
2013-08-13 03:16:00,71.2,70.6,29.97,WSW,247,0.0,0.0,98,0.00,,FEW060,0.00,VWS V14.01,2013-08-13 07:16:00,
2013-08-13 03:21:00,71.2,70.6,29.97,WSW,247,0.0,0.0,98,0.00,,FEW060,0.00,VWS V14.01,2013-08-13 07:21:00,
2013-08-13 03:26:00,71.1,70.5,29.97,WSW,247,0.0,0.0,98,0.00,,FEW060,0.00,VWS V14.01,2013-08-13 07:26:00,
2013-08-13 03:30:00,71.1,70.5,29.97,WSW,247,0.0,0.0,98,0.00,,CLR,0.00,VWS V14.01,2013-08-13 07:30:00,
2013-08-13 03:31:00,71.1,70.5,29.97,WSW,247,0.0,0.0,98,0.00,,FEW060,0.00,VWS V14.01,2013-08-13 07:31:00,
2013-08-13 03:36:00,71.1,70.5,29.97,WSW,247,0.0,0.0,98,0.00,,FEW065,0.00,VWS V14.01,2013-08-13 07:36:00,
2013-08-13 03:41:00,71.2,70.6,29.96,WSW,247,0.0,0.0,98,0.00,,FEW065,0.00,VWS V14.01,2013-08-13 07:41:00,
2013-08-13 03:46:00,71.1,70.5,29.97,WSW,247,0.0,0.0,98,0.00,,FEW065,0.00,VWS V14.01,2013-08-13 07:46:00,
2013-08-13 03:51:00,71.1,70.5,29.97,WSW,247,0.0,0.0,98,0.00,,FEW065,0.00,VWS V14.01,2013-08-13 07:51:00,
2013-08-13 03:56:00,71.0,70.4,29.96,WSW,247,0.0,0.0,98,0.00,,FEW065,0.00,VWS V14.01,2013-08-13 07:56:00,
2013-08-13 04:00:00,71.0,70.4,29.96,WSW,247,0.0,0.0,98,0.00,,CLR,0.00,VWS V14.01,2013-08-13 08:00:00,
2013-08-13 04:01:00,71.0,70.4,29.96,WSW,247,0.0,0.0,98,0.00,,FEW065,0.00,VWS V14.01,2013-08-13 08:01:00,
2013-08-13 04:06:00,71.0,70.4,29.96,WSW,247,0.0,0.0,98,0.00,,FEW065,0.00,VWS V14.01,2013-08-13 08:06:00,
2013-08-13 04:11:00,70.9,70.3,29.96,WSW,247,0.0,0.0,98,0.00,,FEW065,0.00,VWS V14.01,2013-08-13 08:11:00,
2013-08-13 04:16:00,70.8,70.2,29.96,WSW,247,0.0,0.0,98,0.00,,FEW065,0.00,VWS V14.01,2013-08-13 08:16:00,
2013-08-13 04:21:00,70.7,70.1,29.96,WSW,247,0.0,0.0,98,0.00,,FEW065,0.00,VWS V14.01,2013-08-13 08:21:00,
2013-08-13 04:26:00,70.7,70.1,29.96,WSW,247,0.0,0.0,98,0.00,,FEW065,0.00,VWS V14.01,2013-08-13 08:26:00,
2013-08-13 04:30:00,70.6,70.0,29.96,WSW,247,0.0,0.0,98,0.00,,CLR,0.00,VWS V14.01,2013-08-13 08:30:00,
2013-08-13 04:31:00,70.6,70.0,29.96,WSW,247,0.0,0.0,98,0.00,,FEW065,0.00,VWS V14.01,2013-08-13 08:31:00,
2013-08-13 04:36:00,70.6,70.0,29.96,WSW,247,0.0,0.0,98,0.00,,CLR,0.00,VWS V14.01,2013-08-13 08:36:00,
2013-08-13 04:41:00,70.5,69.9,29.96,WSW,247,0.0,0.0,98,0.00,,CLR,0.00,VWS V14.01,2013-08-13 08:41:00,
2013-08-13 04:46:00,70.4,69.8,29.96,WSW,247,0.0,0.0,98,0.00,,CLR,0.00,VWS V14.01,2013-08-13 08:46:00,
2013-08-13 04:51:00,70.4,69.8,29.96,WSW,247,0.0,0.0,98,0.00,,CLR,0.00,VWS V14.01,2013-08-13 08:51:00,
2013-08-13 04:56:00,70.3,69.7,29.96,WSW,247,0.0,0.0,98,0.00,,CLR,0.00,VWS V14.01,2013-08-13 08:56:00,
2013-08-13 05:00:00,70.3,69.7,29.96,WSW,247,0.0,0.0,98,0.00,,CLR,0.00,VWS V14.01,2013-08-13 09:00:00,
2013-08-13 05:01:00,70.3,69.7,29.96,WSW,247,0.0,0.0,98,0.00,,CLR,0.00,VWS V14.01,2013-08-13 09:01:00,
2013-08-13 05:06:00,70.2,69.6,29.96,WSW,247,0.0,0.0,98,0.00,,CLR,0.00,VWS V14.01,2013-08-13 09:06:00,
2013-08-13 05:11:00,70.1,69.5,29.96,WSW,247,0.0,0.0,98,0.00,,CLR,0.00,VWS V14.01,2013-08-13 09:11:00,
2013-08-13 05:16:00,70.1,69.5,29.96,WSW,247,0.0,0.0,98,0.00,,CLR,0.00,VWS V14.01,2013-08-13 09:16:00,
2013-08-13 05:21:00,70.1,69.5,29.96,WSW,247,0.0,0.0,98,0.00,,CLR,0.00,VWS V14.01,2013-08-13 09:21:00,
2013-08-13 05:26:00,70.0,69.4,29.96,WSW,247,0.0,0.0,98,0.00,,CLR,0.00,VWS V14.01,2013-08-13 09:26:00,
2013-08-13 05:30:00,70.0,69.4,29.96,WSW,247,0.0,0.0,98,0.00,,CLR,0.00,VWS V14.01,2013-08-13 09:30:00,
2013-08-13 05:31:00,69.9,69.3,29.96,WSW,247,0.0,0.0,98,0.00,,CLR,0.00,VWS V14.01,2013-08-13 09:31:00,
2013-08-13 05:36:00,69.9,69.3,29.96,WSW,247,0.0,0.0,98,0.00,,CLR,0.00,VWS V14.01,2013-08-13 09:36:00,
2013-08-13 05:41:00,69.8,69.2,29.97,WSW,247,0.0,0.0,98,0.00,,CLR,0.00,VWS V14.01,2013-08-13 09:41:00,
2013-08-13 05:46:00,69.9,69.3,29.96,WSW,247,0.0,0.0,98,0.00,,CLR,0.00,VWS V14.01,2013-08-13 09:46:00,
2013-08-13 05:51:00,69.8,69.2,29.96,WSW,247,0.0,0.0,98,0.00,,CLR,0.00,VWS V14.01,2013-08-13 09:51:00,
2013-08-13 05:56:00,69.8,69.2,29.97,WSW,247,0.0,0.0,98,0.00,,CLR,0.00,VWS V14.01,2013-08-13 09:56:00,
2013-08-13 06:00:00,69.8,69.2,29.97,WSW,247,0.0,0.0,98,0.00,,CLR,0.00,VWS V14.01,2013-08-13 10:00:00,
2013-08-13 06:01:00,69.7,69.1,29.97,WSW,247,0.0,0.0,98,0.00,,CLR,0.00,VWS V14.01,2013-08-13 10:01:00,
2013-08-13 06:06:00,69.7,69.1,29.97,WSW,247,0.0,0.0,98,0.00,,CLR,0.00,VWS V14.01,2013-08-13 10:06:00,
2013-08-13 06:11:00,69.7,69.1,29.97,WSW,247,0.0,0.0,98,0.00,,CLR,0.00,VWS V14.01,2013-08-13 10:11:00,
2013-08-13 06:16:00,69.7,69.1,29.97,WSW,247,0.0,0.0,98,0.00,,CLR,0.00,VWS V14.01,2013-08-13 10:16:00,
2013-08-13 06:21:00,69.6,69.0,29.97,WSW,247,0.0,0.0,98,0.00,,CLR,0.00,VWS V14.01,2013-08-13 10:21:00,
2013-08-13 06:26:00,69.5,68.9,29.97,WSW,247,0.0,0.0,98,0.00,,CLR,0.00,VWS V14.01,2013-08-13 10:26:00,
2013-08-13 06:30:00,69.5,68.9,29.97,WSW,247,0.0,0.0,98,0.00,,CLR,0.00,VWS V14.01,2013-08-13 10:30:00,
2013-08-13 06:31:00,69.5,68.9,29.97,WSW,247,0.0,0.0,98,0.00,,CLR,0.00,VWS V14.01,2013-08-13 10:31:00,
2013-08-13 06:36:00,69.5,68.9,29.97,WSW,247,0.0,0.0,98,0.00,,FEW003,0.00,VWS V14.01,2013-08-13 10:36:00,
2013-08-13 06:41:00,69.6,69.0,29.98,WSW,247,0.0,0.0,98,0.00,,FEW003,0.00,VWS V14.01,2013-08-13 10:41:00,
2013-08-13 06:46:00,69.6,69.0,29.98,WSW,247,0.0,0.0,98,0.00,,FEW003,0.00,VWS V14.01,2013-08-13 10:46:00,
2013-08-13 06:51:00,69.6,69.0,29.98,WSW,247,0.0,0.0,98,0.00,,FEW003,0.00,VWS V14.01,2013-08-13 10:51:00,
2013-08-13 06:56:00,69.7,69.1,29.98,WSW,247,0.0,0.0,98,0.00,,FEW003,0.00,VWS V14.01,2013-08-13 10:56:00,
2013-08-13 07:00:00,69.7,69.1,29.98,WSW,247,0.0,0.0,98,0.00,,CLR,0.00,VWS V14.01,2013-08-13 11:00:00,
2013-08-13 07:01:00,69.7,69.1,29.98,WSW,247,0.0,0.0,98,0.00,,FEW003,0.00,VWS V14.01,2013-08-13 11:01:00,
2013-08-13 07:06:00,70.0,69.7,29.99,WSW,247,0.0,0.0,99,0.00,,FEW003,0.00,VWS V14.01,2013-08-13 11:06:00,
2013-08-13 07:11:00,70.0,69.7,29.99,WSW,247,0.0,0.0,99,0.00,,FEW003,0.00,VWS V14.01,2013-08-13 11:11:00,
2013-08-13 07:16:00,70.1,69.8,29.99,WSW,247,0.0,0.0,99,0.00,,FEW003,0.00,VWS V14.01,2013-08-13 11:16:00,
2013-08-13 07:21:00,70.3,70.0,29.98,WSW,247,0.0,0.0,99,0.00,,FEW003,0.00,VWS V14.01,2013-08-13 11:21:00,
2013-08-13 07:26:00,70.4,70.1,29.99,WSW,247,0.0,0.0,99,0.00,,FEW003,0.00,VWS V14.01,2013-08-13 11:26:00,
2013-08-13 07:30:00,70.5,70.2,29.99,WSW,247,0.0,0.0,99,0.00,,CLR,0.00,VWS V14.01,2013-08-13 11:30:00,
2013-08-13 07:31:00,70.5,70.2,29.99,WSW,247,0.0,0.0,99,0.00,,FEW003,0.00,VWS V14.01,2013-08-13 11:31:00,
2013-08-13 07:36:00,70.7,70.4,29.99,WSW,247,0.0,0.0,99,0.00,,,0.00,VWS V14.01,2013-08-13 11:36:00,
2013-08-13 07:41:00,70.9,70.6,29.99,WSW,247,0.0,0.0,99,0.00,,,0.00,VWS V14.01,2013-08-13 11:41:00,
2013-08-13 07:46:00,71.1,70.8,29.99,WSW,247,0.0,1.0,99,0.00,,,0.00,VWS V14.01,2013-08-13 11:46:00,
2013-08-13 07:51:00,71.3,71.0,29.99,WSW,247,0.0,1.0,99,0.00,,,0.00,VWS V14.01,2013-08-13 11:51:00,
2013-08-13 07:56:00,71.5,71.2,29.99,WSW,247,0.0,1.0,99,0.00,,,0.00,VWS V14.01,2013-08-13 11:56:00,
2013-08-13 08:00:00,71.6,71.3,29.99,WSW,247,0.0,1.0,99,0.00,,CLR,0.00,VWS V14.01,2013-08-13 12:00:00,
2013-08-13 08:01:00,71.6,71.3,29.99,WSW,247,0.0,0.0,99,0.03,,,0.03,VWS V14.01,2013-08-13 12:01:00,
2013-08-13 08:06:00,71.9,71.6,29.99,WSW,247,0.0,0.0,99,0.03,,,0.03,VWS V14.01,2013-08-13 12:06:00,
2013-08-13 08:11:00,72.0,71.7,29.99,WSW,247,0.0,2.0,99,0.03,,,0.03,VWS V14.01,2013-08-13 12:11:00,
2013-08-13 08:16:00,72.0,71.7,29.99,WSW,247,0.0,2.0,99,0.03,,,0.03,VWS V14.01,2013-08-13 12:16:00,
2013-08-13 08:21:00,72.2,71.9,29.99,West,269,1.0,2.0,99,0.03,,,0.03,VWS V14.01,2013-08-13 12:21:00,
2013-08-13 08:26:00,72.4,72.1,29.99,West,269,0.0,2.0,99,0.03,,,0.03,VWS V14.01,2013-08-13 12:26:00,
2013-08-13 08:30:00,72.4,72.1,29.99,West,269,0.0,2.0,99,0.03,,CLR,0.03,VWS V14.01,2013-08-13 12:30:00,
2013-08-13 08:31:00,72.5,72.2,29.99,West,269,0.0,0.0,99,0.03,,,0.03,VWS V14.01,2013-08-13 12:31:00,
2013-08-13 08:36:00,72.6,72.3,29.99,West,260,0.0,2.0,99,0.03,,,0.03,VWS V14.01,2013-08-13 12:36:00,
2013-08-13 08:41:00,72.9,72.3,29.99,West,260,0.0,2.0,98,0.03,,,0.03,VWS V14.01,2013-08-13 12:41:00,
2013-08-13 08:46:00,73.3,73.0,29.99,West,279,0.0,2.0,99,0.03,,,0.03,VWS V14.01,2013-08-13 12:46:00,
2013-08-13 08:51:00,73.6,73.0,29.99,WSW,244,1.0,2.0,98,0.03,,-RA,0.03,VWS V14.01,2013-08-13 12:51:00,
2013-08-13 08:56:00,73.9,73.0,29.99,WSW,244,0.0,2.0,97,0.03,,-RA,0.03,VWS V14.01,2013-08-13 12:56:00,
2013-08-13 09:00:00,74.2,73.6,29.99,WSW,244,0.0,2.0,98,0.03,,CLR,0.03,VWS V14.01,2013-08-13 13:00:00,
2013-08-13 09:01:00,74.1,73.2,29.99,WSW,244,0.0,0.0,97,0.03,,-RA,0.03,VWS V14.01,2013-08-13 13:01:00,
2013-08-13 09:06:00,74.2,73.3,30.00,WSW,244,0.0,1.0,97,0.03,,-RA,0.03,VWS V14.01,2013-08-13 13:06:00,
2013-08-13 09:11:00,74.3,73.1,30.00,West,264,1.0,4.0,96,0.03,,-RA,0.03,VWS V14.01,2013-08-13 13:11:00,
2013-08-13 09:16:00,74.4,72.9,30.00,South,183,0.0,4.0,95,0.03,,-RA,0.03,VWS V14.01,2013-08-13 13:16:00,
2013-08-13 09:21:00,74.4,72.9,30.00,South,180,0.0,6.0,95,0.03,,-RA,0.03,VWS V14.01,2013-08-13 13:21:00,
2013-08-13 09:26:00,74.5,73.0,30.00,WSW,255,0.0,6.0,95,0.03,,-RA,0.03,VWS V14.01,2013-08-13 13:26:00,
2013-08-13 09:30:00,74.6,72.8,29.99,West,265,0.0,6.0,94,0.03,,CLR,0.03,VWS V14.01,2013-08-13 13:30:00,
2013-08-13 09:31:00,74.6,73.1,29.99,West,265,0.0,0.0,95,0.00,,-RA,0.03,VWS V14.01,2013-08-13 13:31:00,
2013-08-13 09:36:00,74.7,72.9,29.99,NNE,13,0.0,2.0,94,0.00,,BKN070,0.03,VWS V14.01,2013-08-13 13:36:00,
2013-08-13 09:41:00,74.9,73.1,29.99,SE,142,0.0,2.0,94,0.00,,BKN070,0.03,VWS V14.01,2013-08-13 13:41:00,
2013-08-13 09:46:00,75.0,73.2,29.99,SW,231,3.0,3.0,94,0.00,,BKN070,0.03,VWS V14.01,2013-08-13 13:46:00,
2013-08-13 09:51:00,75.1,73.3,29.99,SW,236,0.0,3.0,94,0.00,,BKN016,0.03,VWS V14.01,2013-08-13 13:51:00,
2013-08-13 09:56:00,75.2,73.4,29.99,SW,236,0.0,3.0,94,0.00,,BKN016,0.03,VWS V14.01,2013-08-13 13:56:00,
2013-08-13 10:00:00,75.3,73.5,29.99,SW,236,1.0,3.0,94,0.00,,CLR,0.03,VWS V14.01,2013-08-13 14:00:00,
2013-08-13 10:01:00,75.3,73.5,29.99,SW,236,2.0,2.0,94,0.00,,BKN016,0.03,VWS V14.01,2013-08-13 14:01:00,
2013-08-13 10:06:00,75.6,73.8,29.99,SW,231,1.0,4.0,94,0.00,,BKN016,0.03,VWS V14.01,2013-08-13 14:06:00,
2013-08-13 10:11:00,75.8,73.6,29.99,WSW,241,1.0,6.0,93,0.00,,BKN016,0.03,VWS V14.01,2013-08-13 14:11:00,
2013-08-13 10:16:00,75.8,73.0,29.99,West,279,0.0,6.0,91,0.00,,BKN016,0.03,VWS V14.01,2013-08-13 14:16:00,
2013-08-13 10:21:00,75.7,72.6,29.99,WSW,255,2.0,12.0,90,0.00,,BKN016,0.03,VWS V14.01,2013-08-13 14:21:00,
2013-08-13 10:26:00,75.6,72.5,29.99,SW,233,0.0,12.0,90,0.00,,BKN016,0.03,VWS V14.01,2013-08-13 14:26:00,
2013-08-13 10:30:00,75.5,72.4,29.99,SW,223,0.0,12.0,90,0.00,,CLR,0.03,VWS V14.01,2013-08-13 14:30:00,
2013-08-13 10:31:00,75.5,72.4,30.00,NW,313,0.0,3.0,90,0.00,,BKN016,0.03,VWS V14.01,2013-08-13 14:31:00,
2013-08-13 10:36:00,75.5,72.7,29.99,NNW,335,0.0,4.0,91,0.00,,BKN016,0.03,VWS V14.01,2013-08-13 14:36:00,
2013-08-13 10:41:00,75.4,72.3,30.00,NW,309,0.0,4.0,90,0.00,,BKN016,0.03,VWS V14.01,2013-08-13 14:41:00,
2013-08-13 10:46:00,75.3,72.5,30.00,WNW,284,0.0,4.0,91,0.00,,BKN016,0.03,VWS V14.01,2013-08-13 14:46:00,
2013-08-13 10:51:00,75.2,72.7,30.00,WNW,284,0.0,4.0,92,0.00,,BKN016,0.03,VWS V14.01,2013-08-13 14:51:00,
2013-08-13 10:56:00,75.2,72.7,30.00,WNW,282,0.0,4.0,92,0.00,,BKN016,0.03,VWS V14.01,2013-08-13 14:56:00,
2013-08-13 11:00:00,75.2,72.7,30.00,WSW,257,3.0,4.0,92,0.00,,CLR,0.03,VWS V14.01,2013-08-13 15:00:00,
2013-08-13 11:01:00,75.2,72.7,30.00,NNE,18,0.0,3.0,92,0.00,,BKN016,0.03,VWS V14.01,2013-08-13 15:01:00,
2013-08-13 11:06:00,75.4,72.6,30.00,West,281,0.0,3.0,91,0.00,,BKN016,0.03,VWS V14.01,2013-08-13 15:06:00,
2013-08-13 11:11:00,75.7,72.6,30.01,NE,52,0.0,4.0,90,0.00,,BKN016,0.03,VWS V14.01,2013-08-13 15:11:00,
2013-08-13 11:16:00,76.1,73.3,30.01,WNW,290,0.0,4.0,91,0.00,,BKN016,0.03,VWS V14.01,2013-08-13 15:16:00,
2013-08-13 11:21:00,76.7,73.9,30.01,West,268,1.0,4.0,91,0.00,,BKN016,0.03,VWS V14.01,2013-08-13 15:21:00,
2013-08-13 11:26:00,77.2,73.7,30.00,SW,215,4.0,6.0,89,0.00,,BKN016,0.03,VWS V14.01,2013-08-13 15:26:00,
2013-08-13 11:30:00,77.5,73.3,30.00,SSW,205,1.0,6.0,87,0.00,,CLR,0.03,VWS V14.01,2013-08-13 15:30:00,
2013-08-13 11:31:00,77.6,73.4,30.00,WSW,255,2.0,3.0,87,0.00,,BKN016,0.03,VWS V14.01,2013-08-13 15:31:00,
2013-08-13 11:36:00,77.6,72.7,30.00,NNE,25,3.0,6.0,85,0.00,,OVC023,0.03,VWS V14.01,2013-08-13 15:36:00,
2013-08-13 11:41:00,77.5,72.6,30.01,WNW,294,1.0,7.0,85,0.00,,OVC023,0.03,VWS V14.01,2013-08-13 15:41:00,
2013-08-13 11:46:00,77.3,72.4,30.00,WSW,246,5.0,7.0,85,0.00,,OVC023,0.03,VWS V14.01,2013-08-13 15:46:00,
2013-08-13 11:51:00,77.3,73.8,30.00,SSW,192,1.0,7.0,89,0.00,,OVC023,0.03,VWS V14.01,2013-08-13 15:51:00,
2013-08-13 11:56:00,77.4,73.6,30.00,WNW,300,0.0,7.0,88,0.00,,OVC023,0.03,VWS V14.01,2013-08-13 15:56:00,
2013-08-13 12:00:00,77.5,73.0,30.00,NE,36,2.0,7.0,86,0.00,,CLR,0.03,VWS V14.01,2013-08-13 16:00:00,
2013-08-13 12:01:00,77.6,73.1,30.00,West,261,0.0,6.0,86,0.00,,OVC023,0.03,VWS V14.01,2013-08-13 16:01:00,
2013-08-13 12:06:00,77.7,72.8,30.00,NNW,335,1.0,6.0,85,0.00,,OVC023,0.03,VWS V14.01,2013-08-13 16:06:00,
2013-08-13 12:11:00,77.7,72.8,30.00,West,277,0.0,6.0,85,0.00,,OVC023,0.03,VWS V14.01,2013-08-13 16:11:00,
2013-08-13 12:16:00,77.6,72.7,30.00,WNW,289,0.0,7.0,85,0.00,,OVC023,0.03,VWS V14.01,2013-08-13 16:16:00,
2013-08-13 12:21:00,78.1,73.6,30.00,SW,226,0.0,7.0,86,0.00,,OVC023,0.03,VWS V14.01,2013-08-13 16:21:00,
2013-08-13 12:26:00,78.5,73.3,30.00,East,88,1.0,9.0,84,0.00,,OVC023,0.03,VWS V14.01,2013-08-13 16:26:00,
2013-08-13 12:30:00,78.5,73.3,30.00,West,263,0.0,9.0,84,0.00,,CLR,0.03,VWS V14.01,2013-08-13 16:30:00,
2013-08-13 12:31:00,78.4,73.2,30.00,WNW,296,0.0,3.0,84,0.00,,OVC023,0.03,VWS V14.01,2013-08-13 16:31:00,
2013-08-13 12:36:00,78.2,73.0,30.00,North,360,0.0,6.0,84,0.00,,OVC028,0.03,VWS V14.01,2013-08-13 16:36:00,
2013-08-13 12:41:00,78.2,73.0,29.99,WNW,285,2.0,6.0,84,0.00,,OVC028,0.03,VWS V14.01,2013-08-13 16:41:00,
2013-08-13 12:46:00,78.7,73.5,29.99,NNE,15,1.0,6.0,84,0.00,,OVC028,0.03,VWS V14.01,2013-08-13 16:46:00,
2013-08-13 12:51:00,79.8,73.4,29.99,WSW,257,1.0,6.0,81,0.00,,OVC028,0.03,VWS V14.01,2013-08-13 16:51:00,
2013-08-13 12:56:00,80.2,73.5,29.99,WSW,242,1.0,6.0,80,0.00,,OVC028,0.03,VWS V14.01,2013-08-13 16:56:00,
2013-08-13 13:00:00,80.5,74.1,29.99,SSE,167,2.0,6.0,81,0.00,,CLR,0.03,VWS V14.01,2013-08-13 17:00:00,
2013-08-13 13:01:00,80.9,74.9,29.99,WSW,238,0.0,3.0,82,0.00,,OVC028,0.03,VWS V14.01,2013-08-13 17:01:00,
2013-08-13 13:06:00,81.3,73.8,29.98,WSW,255,3.0,8.0,78,0.00,,OVC028,0.03,VWS V14.01,2013-08-13 17:06:00,
2013-08-13 13:12:00,82.5,74.6,29.98,SE,141,0.0,8.0,77,0.00,,OVC028,0.03,VWS V14.01,2013-08-13 17:12:00,
2013-08-13 13:17:00,82.9,74.2,29.98,WSW,258,6.0,8.0,75,0.00,,OVC028,0.03,VWS V14.01,2013-08-13 17:17:00,
2013-08-13 13:22:00,82.8,74.5,29.98,NW,310,0.0,8.0,76,0.00,,OVC028,0.03,VWS V14.01,2013-08-13 17:22:00,
2013-08-13 13:27:00,82.7,74.0,29.98,SSE,161,2.0,8.0,75,0.00,,OVC028,0.03,VWS V14.01,2013-08-13 17:27:00,
2013-08-13 13:30:00,82.5,73.8,29.98,South,182,3.0,8.0,75,0.00,,CLR,0.03,VWS V14.01,2013-08-13 17:30:00,
2013-08-13 13:32:00,82.3,74.8,29.98,West,273,0.0,4.0,78,0.00,,OVC028,0.03,VWS V14.01,2013-08-13 17:32:00,
2013-08-13 13:37:00,82.7,75.2,29.98,SSE,153,2.0,4.0,78,0.00,,BKN036,0.03,VWS V14.01,2013-08-13 17:37:00,
2013-08-13 13:42:00,83.0,74.3,29.98,SW,232,2.0,8.0,75,0.00,,BKN036,0.03,VWS V14.01,2013-08-13 17:42:00,
2013-08-13 13:47:00,82.8,74.5,29.98,North,355,0.0,8.0,76,0.00,,BKN036,0.03,VWS V14.01,2013-08-13 17:47:00,
2013-08-13 13:52:00,84.1,74.9,29.97,South,181,1.0,8.0,74,0.00,,BKN036,0.03,VWS V14.01,2013-08-13 17:52:00,
2013-08-13 13:57:00,84.5,74.1,29.97,ESE,113,1.0,8.0,71,0.00,,BKN036,0.03,VWS V14.01,2013-08-13 17:57:00,
2013-08-13 14:00:00,84.2,74.2,29.97,South,186,0.0,8.0,72,0.00,,CLR,0.03,VWS V14.01,2013-08-13 18:00:00,
2013-08-13 14:02:00,84.3,74.3,29.97,West,274,0.0,2.0,72,0.00,,BKN036,0.03,VWS V14.01,2013-08-13 18:02:00,
2013-08-13 14:07:00,85.0,74.6,29.97,NW,312,0.0,4.0,71,0.00,,BKN036,0.03,VWS V14.01,2013-08-13 18:07:00,
2013-08-13 14:12:00,85.1,74.2,29.97,SW,224,0.0,7.0,70,0.00,,BKN036,0.03,VWS V14.01,2013-08-13 18:12:00,
2013-08-13 14:17:00,84.9,74.4,29.96,WSW,252,0.0,7.0,71,0.00,,BKN036,0.03,VWS V14.01,2013-08-13 18:17:00,
2013-08-13 14:22:00,84.9,74.0,29.96,SW,231,4.0,7.0,70,0.00,,BKN036,0.03,VWS V14.01,2013-08-13 18:22:00,
2013-08-13 14:27:00,84.9,74.9,29.96,NNW,340,0.0,7.0,72,0.00,,BKN036,0.03,VWS V14.01,2013-08-13 18:27:00,
2013-08-13 14:30:00,85.0,75.4,29.96,North,355,1.0,7.0,73,0.00,,CLR,0.03,VWS V14.01,2013-08-13 18:30:00,
2013-08-13 14:32:00,85.3,74.4,29.96,North,355,5.0,9.0,70,0.00,,BKN036,0.03,VWS V14.01,2013-08-13 18:32:00,
2013-08-13 14:37:00,85.2,73.9,29.96,West,267,6.0,9.0,69,0.00,,BKN036,0.03,VWS V14.01,2013-08-13 18:37:00,
2013-08-13 14:42:00,85.6,75.1,29.96,West,272,1.0,9.0,71,0.00,,BKN036,0.03,VWS V14.01,2013-08-13 18:42:00,
2013-08-13 14:47:00,85.9,74.1,29.95,SW,230,2.0,9.0,68,0.00,,BKN036,0.03,VWS V14.01,2013-08-13 18:47:00,
2013-08-13 14:52:00,85.7,74.4,29.95,SE,142,1.0,9.0,69,0.00,,BKN036,0.03,VWS V14.01,2013-08-13 18:52:00,
2013-08-13 14:57:00,84.9,74.0,29.95,WSW,248,3.0,9.0,70,0.00,,BKN036,0.03,VWS V14.01,2013-08-13 18:57:00,
2013-08-13 15:00:00,84.7,74.3,29.95,ESE,111,1.0,9.0,71,0.00,,CLR,0.03,VWS V14.01,2013-08-13 19:00:00,
2013-08-13 15:02:00,84.3,73.9,29.95,SSE,161,0.0,2.0,71,0.00,,BKN036,0.03,VWS V14.01,2013-08-13 19:02:00,
2013-08-13 15:07:00,84.0,73.6,29.94,WSW,240,3.0,7.0,71,0.00,,BKN036,0.03,VWS V14.01,2013-08-13 19:07:00,
2013-08-13 15:12:00,83.9,73.9,29.94,West,262,0.0,7.0,72,0.00,,BKN036,0.03,VWS V14.01,2013-08-13 19:12:00,
2013-08-13 15:17:00,84.7,75.5,29.94,North,5,0.0,7.0,74,0.00,,BKN036,0.03,VWS V14.01,2013-08-13 19:17:00,
2013-08-13 15:22:00,85.5,74.6,29.94,WSW,242,2.0,7.0,70,0.00,,BKN036,0.03,VWS V14.01,2013-08-13 19:22:00,
2013-08-13 15:27:00,85.7,73.9,29.93,NNE,19,0.0,7.0,68,0.00,,BKN036,0.03,VWS V14.01,2013-08-13 19:27:00,
2013-08-13 15:30:00,86.0,74.7,29.93,West,267,2.0,7.0,69,0.00,,CLR,0.03,VWS V14.01,2013-08-13 19:30:00,
2013-08-13 15:32:00,86.4,74.2,29.93,WNW,297,0.0,2.0,67,0.00,,BKN036,0.03,VWS V14.01,2013-08-13 19:32:00,
2013-08-13 15:37:00,86.5,73.8,29.93,SW,220,0.0,9.0,66,0.00,,BKN070,0.03,VWS V14.01,2013-08-13 19:37:00,
2013-08-13 15:42:00,86.6,73.4,29.93,West,263,3.0,9.0,65,0.00,,BKN070,0.03,VWS V14.01,2013-08-13 19:42:00,
2013-08-13 15:47:00,87.0,74.3,29.93,WSW,258,0.0,9.0,66,0.00,,BKN070,0.03,VWS V14.01,2013-08-13 19:47:00,
2013-08-13 15:52:00,86.5,75.1,29.92,ESE,103,1.0,9.0,69,0.00,,BKN070,0.03,VWS V14.01,2013-08-13 19:52:00,
2013-08-13 15:57:00,86.5,74.7,29.92,WNW,284,0.0,9.0,68,0.00,,BKN070,0.03,VWS V14.01,2013-08-13 19:57:00,
2013-08-13 16:00:00,86.5,73.3,29.92,WNW,283,1.0,9.0,65,0.00,,CLR,0.03,VWS V14.01,2013-08-13 20:00:00,
2013-08-13 16:02:00,86.6,74.3,29.92,WSW,237,1.0,3.0,67,0.00,,BKN070,0.03,VWS V14.01,2013-08-13 20:02:00,
2013-08-13 16:07:00,86.9,73.7,29.92,North,355,1.0,5.0,65,0.00,,BKN070,0.03,VWS V14.01,2013-08-13 20:07:00,
2013-08-13 16:12:00,87.9,74.7,29.91,West,264,1.0,5.0,65,0.00,,BKN070,0.03,VWS V14.01,2013-08-13 20:12:00,
2013-08-13 16:17:00,88.2,74.5,29.91,ESE,103,0.0,7.0,64,0.00,,BKN070,0.03,VWS V14.01,2013-08-13 20:17:00,
2013-08-13 16:22:00,87.3,73.6,29.91,West,277,0.0,7.0,64,0.00,,BKN070,0.03,VWS V14.01,2013-08-13 20:22:00,
2013-08-13 16:27:00,87.0,74.7,29.91,SSW,193,0.0,7.0,67,0.00,,BKN070,0.03,VWS V14.01,2013-08-13 20:27:00,
2013-08-13 16:30:00,87.0,75.2,29.91,SSW,193,0.0,7.0,68,0.00,,CLR,0.03,VWS V14.01,2013-08-13 20:30:00,
2013-08-13 16:32:00,86.9,74.6,29.90,SSW,193,0.0,1.0,67,0.00,,BKN070,0.03,VWS V14.01,2013-08-13 20:32:00,
2013-08-13 16:37:00,86.2,73.5,29.90,West,273,0.0,4.0,66,0.00,,FEW034,0.03,VWS V14.01,2013-08-13 20:37:00,
2013-08-13 16:42:00,85.9,74.6,29.91,West,263,0.0,4.0,69,0.00,,FEW034,0.03,VWS V14.01,2013-08-13 20:42:00,
2013-08-13 16:47:00,86.0,75.1,29.91,WSW,246,0.0,4.0,70,0.00,,FEW034,0.03,VWS V14.01,2013-08-13 20:47:00,
2013-08-13 16:52:00,85.9,74.6,29.91,West,273,0.0,4.0,69,0.00,,FEW034,0.03,VWS V14.01,2013-08-13 20:52:00,
2013-08-13 16:57:00,85.5,73.7,29.91,WSW,249,0.0,4.0,68,0.00,,FEW034,0.03,VWS V14.01,2013-08-13 20:57:00,
2013-08-13 17:00:00,85.3,74.0,29.91,WSW,248,0.0,4.0,69,0.00,,CLR,0.03,VWS V14.01,2013-08-13 21:00:00,
2013-08-13 17:02:00,85.4,74.5,29.90,North,11,2.0,2.0,70,0.00,,FEW034,0.03,VWS V14.01,2013-08-13 21:02:00,
2013-08-13 17:07:00,85.9,74.6,29.90,West,271,5.0,6.0,69,0.00,,FEW034,0.03,VWS V14.01,2013-08-13 21:07:00,
2013-08-13 17:12:00,86.3,73.6,29.90,SW,229,2.0,9.0,66,0.00,,FEW034,0.03,VWS V14.01,2013-08-13 21:12:00,
2013-08-13 17:17:00,86.6,73.9,29.90,SW,227,3.0,9.0,66,0.00,,FEW034,0.03,VWS V14.01,2013-08-13 21:17:00,
2013-08-13 17:22:00,86.8,74.1,29.90,WSW,252,0.0,9.0,66,0.00,,FEW034,0.03,VWS V14.01,2013-08-13 21:22:00,
2013-08-13 17:27:00,87.0,74.7,29.90,WSW,255,1.0,9.0,67,0.00,,FEW034,0.03,VWS V14.01,2013-08-13 21:27:00,
2013-08-13 17:30:00,87.0,74.3,29.90,West,259,3.0,9.0,66,0.00,,CLR,0.03,VWS V14.01,2013-08-13 21:30:00,
2013-08-13 17:32:00,86.5,74.2,29.90,WNW,282,0.0,3.0,67,0.00,,FEW034,0.03,VWS V14.01,2013-08-13 21:32:00,
2013-08-13 17:37:00,86.0,74.7,29.90,WSW,252,0.0,3.0,69,0.00,,SCT039,0.03,VWS V14.01,2013-08-13 21:37:00,
2013-08-13 17:42:00,85.4,74.5,29.90,South,185,0.0,3.0,70,0.00,,SCT039,0.03,VWS V14.01,2013-08-13 21:42:00,
2013-08-13 17:47:00,85.5,74.2,29.90,WNW,293,0.0,3.0,69,0.00,,SCT039,0.03,VWS V14.01,2013-08-13 21:47:00,
2013-08-13 17:52:00,85.5,74.6,29.90,NNW,345,0.0,4.0,70,0.00,,SCT039,0.03,VWS V14.01,2013-08-13 21:52:00,
2013-08-13 17:57:00,84.6,74.2,29.91,North,5,0.0,5.0,71,0.00,,SCT039,0.03,VWS V14.01,2013-08-13 21:57:00,
2013-08-13 18:00:00,84.3,73.9,29.91,North,9,1.0,5.0,71,0.00,,CLR,0.03,VWS V14.01,2013-08-13 22:00:00,
2013-08-13 18:02:00,83.7,74.1,29.91,WNW,282,0.0,1.0,73,0.00,,SCT039,0.03,VWS V14.01,2013-08-13 22:02:00,
2013-08-13 18:07:00,83.2,74.1,29.91,WNW,302,0.0,3.0,74,0.00,,SCT039,0.03,VWS V14.01,2013-08-13 22:07:00,
2013-08-13 18:12:00,83.0,73.9,29.90,NNE,32,1.0,4.0,74,0.00,,SCT039,0.03,VWS V14.01,2013-08-13 22:12:00,
2013-08-13 18:17:00,83.1,74.0,29.90,WSW,253,0.0,5.0,74,0.00,,SCT039,0.03,VWS V14.01,2013-08-13 22:17:00,
2013-08-13 18:22:00,83.4,73.4,29.90,WSW,246,0.0,6.0,72,0.00,,SCT039,0.03,VWS V14.01,2013-08-13 22:22:00,
2013-08-13 18:27:00,83.6,73.6,29.90,NW,310,0.0,6.0,72,0.00,,SCT039,0.03,VWS V14.01,2013-08-13 22:27:00,
2013-08-13 18:30:00,83.6,73.6,29.90,NW,310,0.0,6.0,72,0.00,,CLR,0.03,VWS V14.01,2013-08-13 22:30:00,
2013-08-13 18:32:00,83.4,73.0,29.90,NW,313,0.0,3.0,71,0.00,,SCT039,0.03,VWS V14.01,2013-08-13 22:32:00,
2013-08-13 18:37:00,83.2,72.8,29.90,NNE,30,0.0,3.0,71,0.00,,SCT038,0.03,VWS V14.01,2013-08-13 22:37:00,
2013-08-13 18:42:00,82.9,73.8,29.90,NNE,22,0.0,3.0,74,0.00,,SCT038,0.03,VWS V14.01,2013-08-13 22:42:00,
2013-08-13 18:47:00,82.6,73.9,29.90,NNE,22,0.0,3.0,75,0.00,,SCT038,0.03,VWS V14.01,2013-08-13 22:47:00,
2013-08-13 18:52:00,82.5,74.2,29.90,NNE,22,0.0,3.0,76,0.00,,SCT038,0.03,VWS V14.01,2013-08-13 22:52:00,
2013-08-13 18:57:00,82.4,73.7,29.90,NNE,17,0.0,3.0,75,0.00,,SCT038,0.03,VWS V14.01,2013-08-13 22:57:00,
2013-08-13 19:00:00,82.3,74.4,29.90,NNE,17,0.0,3.0,77,0.00,,CLR,0.03,VWS V14.01,2013-08-13 23:00:00,
2013-08-13 19:02:00,82.1,74.6,29.91,NNE,17,0.0,0.0,78,0.00,,SCT038,0.03,VWS V14.01,2013-08-13 23:02:00,
2013-08-13 19:07:00,81.9,75.1,29.90,NNE,17,0.0,0.0,80,0.00,,SCT038,0.03,VWS V14.01,2013-08-13 23:07:00,
2013-08-13 19:12:00,81.2,74.8,29.91,NNE,17,0.0,0.0,81,0.00,,SCT038,0.03,VWS V14.01,2013-08-13 23:12:00,
2013-08-13 19:17:00,80.9,75.3,29.91,NNE,17,0.0,0.0,83,0.00,,SCT038,0.03,VWS V14.01,2013-08-13 23:17:00,
2013-08-13 19:22:00,80.9,75.3,29.91,NNE,17,0.0,0.0,83,0.00,,SCT038,0.03,VWS V14.01,2013-08-13 23:22:00,
2013-08-13 19:27:00,81.3,75.3,29.91,NNE,17,0.0,0.0,82,0.00,,SCT038,0.03,VWS V14.01,2013-08-13 23:27:00,
2013-08-13 19:30:00,81.5,75.1,29.91,NNE,17,0.0,0.0,81,0.00,,CLR,0.03,VWS V14.01,2013-08-13 23:30:00,
2013-08-13 19:32:00,81.8,75.4,29.91,NNE,17,0.0,0.0,81,0.00,,SCT038,0.03,VWS V14.01,2013-08-13 23:32:00,
2013-08-13 19:37:00,81.8,75.0,29.91,NNE,17,0.0,0.0,80,0.00,,FEW038,0.03,VWS V14.01,2013-08-13 23:37:00,
2013-08-13 19:42:00,81.4,75.7,29.91,NNE,17,0.0,0.0,83,0.00,,FEW038,0.03,VWS V14.01,2013-08-13 23:42:00,
2013-08-13 19:47:00,80.6,75.3,29.90,NNE,17,0.0,0.0,84,0.00,,FEW038,0.03,VWS V14.01,2013-08-13 23:47:00,
2013-08-13 19:52:00,80.2,75.3,29.90,NNE,17,0.0,0.0,85,0.00,,FEW038,0.03,VWS V14.01,2013-08-13 23:52:00,
2013-08-13 19:57:00,79.5,75.3,29.90,NNE,17,0.0,0.0,87,0.00,,FEW038,0.03,VWS V14.01,2013-08-13 23:57:00,
2013-08-13 20:00:00,79.1,75.2,29.90,NNE,17,0.0,0.0,88,0.00,,CLR,0.03,VWS V14.01,2013-08-14 00:00:00,
2013-08-13 20:02:00,78.9,75.1,29.90,NNE,17,0.0,0.0,88,0.00,,FEW038,0.03,VWS V14.01,2013-08-14 00:02:00,
2013-08-13 20:07:00,78.6,75.1,29.90,NNE,17,0.0,0.0,89,0.00,,CLR,0.03,VWS V14.01,2013-08-14 00:07:00,
2013-08-13 20:12:00,78.2,75.0,29.90,NNE,17,0.0,0.0,90,0.00,,CLR,0.03,VWS V14.01,2013-08-14 00:12:00,
2013-08-13 20:17:00,78.0,74.8,29.90,NNE,17,0.0,0.0,90,0.00,,CLR,0.03,VWS V14.01,2013-08-14 00:17:00,
2013-08-13 20:22:00,77.6,74.8,29.90,NNE,17,0.0,0.0,91,0.00,,CLR,0.03,VWS V14.01,2013-08-14 00:22:00,
2013-08-13 20:27:00,77.3,74.5,29.90,NNE,17,0.0,0.0,91,0.00,,CLR,0.03,VWS V14.01,2013-08-14 00:27:00,
2013-08-13 20:30:00,77.1,74.3,29.90,NNE,17,0.0,0.0,91,0.00,,CLR,0.03,VWS V14.01,2013-08-14 00:30:00,
2013-08-13 20:32:00,77.0,74.5,29.90,NNE,17,0.0,0.0,92,0.00,,CLR,0.03,VWS V14.01,2013-08-14 00:32:00,
2013-08-13 20:37:00,77.0,74.5,29.90,NNE,17,0.0,0.0,92,0.00,,CLR,0.03,VWS V14.01,2013-08-14 00:37:00,
2013-08-13 20:42:00,76.9,74.4,29.90,NNE,17,0.0,0.0,92,0.00,,CLR,0.03,VWS V14.01,2013-08-14 00:42:00,
2013-08-13 20:47:00,76.9,74.4,29.90,NNE,17,0.0,0.0,92,0.00,,CLR,0.03,VWS V14.01,2013-08-14 00:47:00,
2013-08-13 20:52:00,76.6,74.4,29.90,NNE,17,0.0,0.0,93,0.00,,CLR,0.03,VWS V14.01,2013-08-14 00:52:00,
2013-08-13 20:57:00,76.4,74.2,29.91,NNE,17,0.0,0.0,93,0.00,,CLR,0.03,VWS V14.01,2013-08-14 00:57:00,
2013-08-13 21:00:00,76.3,74.1,29.91,NNE,17,0.0,0.0,93,0.00,,CLR,0.03,VWS V14.01,2013-08-14 01:00:00,
2013-08-13 21:02:00,76.1,73.9,29.91,NNE,17,0.0,0.0,93,0.00,,,0.03,VWS V14.01,2013-08-14 01:02:00,
2013-08-13 21:07:00,76.0,73.8,29.91,NNE,17,0.0,0.0,93,0.00,,CLR,0.03,VWS V14.01,2013-08-14 01:07:00,
2013-08-13 21:12:00,75.8,73.6,29.91,NNE,17,0.0,0.0,93,0.00,,CLR,0.03,VWS V14.01,2013-08-14 01:12:00,
2013-08-13 21:17:00,75.7,73.8,29.91,NNE,17,0.0,0.0,94,0.00,,CLR,0.03,VWS V14.01,2013-08-14 01:17:00,
2013-08-13 21:22:00,75.5,73.7,29.92,NNE,17,0.0,0.0,94,0.00,,CLR,0.03,VWS V14.01,2013-08-14 01:22:00,
2013-08-13 21:27:00,75.3,73.5,29.92,NNE,17,0.0,0.0,94,0.00,,CLR,0.03,VWS V14.01,2013-08-14 01:27:00,
2013-08-13 21:30:00,75.3,73.5,29.92,NNE,17,0.0,0.0,94,0.00,,,0.03,VWS V14.01,2013-08-14 01:30:00,
2013-08-13 21:32:00,75.2,73.4,29.92,NNE,17,0.0,0.0,94,0.00,,CLR,0.03,VWS V14.01,2013-08-14 01:32:00,
2013-08-13 21:37:00,75.2,73.4,29.92,NNE,17,0.0,0.0,94,0.00,,CLR,0.03,VWS V14.01,2013-08-14 01:37:00,
2013-08-13 21:42:00,75.2,73.7,29.92,NNE,17,0.0,0.0,95,0.00,,CLR,0.03,VWS V14.01,2013-08-14 01:42:00,
2013-08-13 21:47:00,75.2,73.4,29.92,NNE,17,0.0,0.0,94,0.00,,CLR,0.03,VWS V14.01,2013-08-14 01:47:00,
2013-08-13 21:52:00,75.1,73.3,29.92,NNE,17,0.0,0.0,94,0.00,,CLR,0.03,VWS V14.01,2013-08-14 01:52:00,
2013-08-13 21:57:00,75.1,73.3,29.93,NNE,17,0.0,0.0,94,0.00,,CLR,0.03,VWS V14.01,2013-08-14 01:57:00,
2013-08-13 22:00:00,75.1,73.3,29.93,NNE,17,0.0,0.0,94,0.00,,,0.03,VWS V14.01,2013-08-14 02:00:00,
2013-08-13 22:02:00,75.0,73.2,29.93,NNE,17,0.0,0.0,94,0.00,,CLR,0.03,VWS V14.01,2013-08-14 02:02:00,
2013-08-13 22:07:00,75.0,73.2,29.93,NNE,17,0.0,0.0,94,0.00,,CLR,0.03,VWS V14.01,2013-08-14 02:07:00,
2013-08-13 22:12:00,75.0,73.2,29.93,NNE,17,0.0,0.0,94,0.00,,CLR,0.03,VWS V14.01,2013-08-14 02:12:00,
2013-08-13 22:17:00,75.0,73.2,29.93,NNE,17,0.0,0.0,94,0.00,,CLR,0.03,VWS V14.01,2013-08-14 02:17:00,
2013-08-13 22:22:00,75.0,73.2,29.93,NNE,17,0.0,0.0,94,0.00,,CLR,0.03,VWS V14.01,2013-08-14 02:22:00,
2013-08-13 22:27:00,74.8,73.0,29.93,NNE,17,0.0,0.0,94,0.00,,CLR,0.03,VWS V14.01,2013-08-14 02:27:00,
2013-08-13 22:30:00,74.8,73.3,29.93,NNE,17,0.0,0.0,95,0.00,,,0.03,VWS V14.01,2013-08-14 02:30:00,
2013-08-13 22:32:00,74.8,73.3,29.93,NNE,17,0.0,0.0,95,0.00,,CLR,0.03,VWS V14.01,2013-08-14 02:32:00,
2013-08-13 22:37:00,74.7,72.9,29.93,NNE,17,0.0,0.0,94,0.00,,CLR,0.03,VWS V14.01,2013-08-14 02:37:00,
2013-08-13 22:42:00,74.5,73.0,29.93,NNE,17,0.0,0.0,95,0.00,,CLR,0.03,VWS V14.01,2013-08-14 02:42:00,
2013-08-13 22:47:00,74.5,73.0,29.93,NNE,17,0.0,0.0,95,0.00,,CLR,0.03,VWS V14.01,2013-08-14 02:47:00,
2013-08-13 22:52:00,74.4,72.9,29.93,NNE,17,0.0,0.0,95,0.00,,CLR,0.03,VWS V14.01,2013-08-14 02:52:00,
2013-08-13 22:57:00,74.3,72.8,29.93,NNE,17,0.0,0.0,95,0.00,,CLR,0.03,VWS V14.01,2013-08-14 02:57:00,
2013-08-13 23:00:00,74.3,72.8,29.93,NNE,17,0.0,0.0,95,0.00,,,0.03,VWS V14.01,2013-08-14 03:00:00,
2013-08-13 23:02:00,74.3,72.8,29.93,NNE,17,0.0,0.0,95,0.00,,CLR,0.03,VWS V14.01,2013-08-14 03:02:00,
2013-08-13 23:07:00,74.2,72.7,29.93,NNE,17,0.0,0.0,95,0.00,,CLR,0.03,VWS V14.01,2013-08-14 03:07:00,
2013-08-13 23:12:00,74.0,72.5,29.93,NNE,17,0.0,0.0,95,0.00,,CLR,0.03,VWS V14.01,2013-08-14 03:12:00,
2013-08-13 23:17:00,74.0,72.5,29.93,NNE,17,0.0,0.0,95,0.00,,CLR,0.03,VWS V14.01,2013-08-14 03:17:00,
2013-08-13 23:22:00,73.9,72.4,29.93,NNE,17,0.0,0.0,95,0.00,,CLR,0.03,VWS V14.01,2013-08-14 03:22:00,
2013-08-13 23:27:00,73.9,72.7,29.93,NNE,17,0.0,0.0,96,0.00,,CLR,0.03,VWS V14.01,2013-08-14 03:27:00,
2013-08-13 23:30:00,73.9,72.7,29.93,NNE,17,0.0,0.0,96,0.00,,,0.03,VWS V14.01,2013-08-14 03:30:00,
2013-08-13 23:32:00,73.9,72.7,29.93,NNE,17,0.0,0.0,96,0.00,,CLR,0.03,VWS V14.01,2013-08-14 03:32:00,
2013-08-13 23:37:00,73.9,72.7,29.93,NNE,17,0.0,0.0,96,0.00,,CLR,0.03,VWS V14.01,2013-08-14 03:37:00,
2013-08-13 23:42:00,73.9,72.7,29.93,NNE,17,0.0,0.0,96,0.00,,CLR,0.03,VWS V14.01,2013-08-14 03:42:00,
2013-08-13 23:47:00,73.9,72.7,29.93,NNE,17,0.0,0.0,96,0.00,,CLR,0.03,VWS V14.01,2013-08-14 03:47:00,
2013-08-13 23:52:00,73.8,72.6,29.93,NNE,17,0.0,0.0,96,0.00,,CLR,0.03,VWS V14.01,2013-08-14 03:52:00,
2013-08-13 23:57:00,73.8,72.6,29.93,NNE,17,0.0,0.0,96,0.00,,CLR,0.03,VWS V14.01,2013-08-14 03:57:00,